Aviation Digital Data Service (ADDS)

Output produced by METARs form (2311 UTC 15 August 2018)
found at http://www.aviationweather.gov/adds/metars/
 
VVDN 152300Z 22002KT 9999 FEW015 BKN060 28/23 Q1000 NOSIG
TAF VVDN 151700Z 1518/1618 21004KT 9999 FEW015 SCT060 
     PROB30 
     TEMPO 1608/1612 4500 SHRA SCT013 FEW015CB SCT050
       
VVNB 152300Z 31005KT CAVOK 26/26 Q0998 NOSIG
TAF VVNB 151700Z 1518/1618 05007KT 7000 -RA SCT015 BKN060 
     TEMPO 1518/1524 3000 +TSRA BKN015 FEW027CB BKN060 
     TEMPO 1601/1605 4000 RA BKN010 FEW020TCU 
     TEMPO 1610/1616 2500 +TSRA BKN010 SCT023CB BKN060
       
VVTS 152300Z 25006KT 5000 BR FEW015 BKN050 26/26 Q1006 NOSIG
TAF VVTS 151700Z 1518/1624 24008KT 9999 SCT015 SCT040 
     TEMPO 1605/1611 27016G30KT 3000 TSRA BKN013 SCT015CB